createdAt,value
2024-01-24T00:00:42.225Z,2.10
2024-01-24T00:03:08.798Z,2.47
2024-01-24T00:05:35.152Z,3.17
2024-01-24T00:08:01.533Z,1.92
2024-01-24T00:10:27.897Z,1.92
2024-01-24T00:12:55.559Z,3.53
2024-01-24T00:15:21.975Z,5.20
2024-01-24T00:17:48.337Z,3.95
2024-01-24T00:20:14.953Z,5.50
2024-01-24T00:22:41.301Z,3.13
2024-01-24T00:25:07.808Z,3.85
2024-01-24T00:27:34.141Z,3.30
2024-01-24T00:30:00.412Z,2.83
2024-01-24T00:32:26.700Z,3.83
2024-01-24T00:34:53.070Z,4.55
2024-01-24T00:37:19.390Z,4.22
2024-01-24T00:39:47.818Z,3.58
2024-01-24T00:42:14.242Z,5.53
2024-01-24T00:44:40.728Z,2.92
2024-01-24T00:47:07.192Z,5.75
2024-01-24T00:49:33.586Z,4.53
2024-01-24T00:51:59.989Z,3.95
2024-01-24T00:54:26.258Z,4.18
2024-01-24T00:56:52.563Z,2.72
2024-01-24T00:59:19.096Z,6.80
2024-01-24T01:01:45.356Z,4.68
2024-01-24T01:04:11.767Z,5.38
2024-01-24T01:06:38.103Z,5.38
2024-01-24T01:09:04.436Z,2.95
2024-01-24T01:11:30.737Z,6.97
2024-01-24T01:13:57.080Z,5.00
2024-01-24T01:16:23.347Z,4.72
2024-01-24T01:18:49.699Z,4.07
2024-01-24T01:21:16.126Z,4.60
2024-01-24T01:23:42.657Z,5.78
2024-01-24T01:26:08.989Z,3.70
2024-01-24T01:28:35.539Z,3.83
2024-01-24T01:31:01.796Z,3.80
2024-01-24T01:33:28.205Z,3.75
2024-01-24T01:36:08.255Z,5.75
2024-01-24T01:38:40.300Z,5.47
2024-01-24T01:41:06.564Z,3.75
2024-01-24T01:43:32.869Z,3.83
2024-01-24T01:46:03.915Z,5.63
2024-01-24T01:48:30.397Z,4.40
2024-01-24T01:50:57.298Z,2.42
2024-01-24T01:53:23.763Z,4.18
2024-01-24T01:55:50.388Z,2.63
2024-01-24T01:58:16.702Z,2.42
2024-01-24T02:00:44.331Z,4.18
2024-01-24T02:03:11.574Z,7.55
2024-01-24T02:05:39.441Z,4.82
2024-01-24T02:08:06.117Z,3.20
2024-01-24T02:10:32.432Z,4.20
2024-01-24T02:12:58.849Z,4.35
2024-01-24T02:15:25.465Z,3.47
2024-01-24T02:17:51.797Z,2.33
2024-01-24T02:20:19.351Z,1.70
2024-01-24T02:22:45.687Z,3.30
2024-01-24T02:25:12.051Z,4.95
2024-01-24T02:27:38.360Z,2.95
2024-01-24T02:30:06.120Z,3.10
2024-01-24T02:32:32.458Z,2.58
2024-01-24T02:34:58.959Z,3.33
2024-01-24T02:37:25.266Z,3.25
2024-01-24T02:39:51.902Z,1.58
2024-01-24T02:42:18.321Z,2.67
2024-01-24T02:44:44.660Z,2.30
2024-01-24T02:47:10.965Z,1.42
2024-01-24T02:49:37.444Z,2.95
2024-01-24T02:52:04.060Z,3.05
2024-01-24T02:54:30.464Z,1.98
2024-01-24T02:56:56.819Z,2.90
2024-01-24T02:59:23.172Z,1.17
2024-01-24T03:01:49.608Z,1.75
2024-01-24T03:04:15.962Z,2.65
2024-01-24T03:06:42.671Z,0.93
2024-01-24T03:09:09.531Z,1.75
2024-01-24T03:11:35.805Z,1.77
2024-01-24T03:14:02.331Z,2.65
2024-01-24T03:16:28.700Z,1.48
2024-01-24T03:18:55.111Z,1.50
2024-01-24T03:21:21.824Z,1.13
2024-01-24T03:23:48.204Z,2.53
2024-01-24T03:26:16.267Z,1.35
2024-01-24T03:28:42.606Z,1.30
2024-01-24T03:31:08.873Z,1.88
2024-01-24T03:33:36.833Z,3.33
2024-01-24T03:36:03.762Z,1.65
2024-01-24T03:38:30.487Z,1.70
2024-01-24T03:40:56.811Z,1.25
2024-01-24T03:43:23.197Z,1.23
2024-01-24T03:45:49.579Z,0.60
2024-01-24T03:48:15.930Z,2.00
2024-01-24T03:50:42.317Z,1.38
2024-01-24T03:53:08.717Z,1.50
2024-01-24T03:55:34.978Z,1.08
2024-01-24T03:58:01.699Z,1.95
2024-01-24T04:00:28.957Z,0.60
2024-01-24T04:02:55.523Z,1.02
2024-01-24T04:05:21.971Z,0.40
2024-01-24T04:07:48.333Z,0.50
2024-01-24T04:10:14.662Z,0.68
2024-01-24T04:12:41.040Z,0.80
2024-01-24T04:15:07.838Z,0.40
2024-01-24T04:17:34.151Z,0.75
2024-01-24T04:20:00.489Z,0.50
2024-01-24T04:22:26.912Z,1.65
2024-01-24T04:24:53.370Z,0.47
2024-01-24T04:27:19.735Z,1.90
2024-01-24T04:29:46.115Z,2.33
2024-01-24T04:32:12.389Z,0.52
2024-01-24T04:34:38.720Z,0.93
2024-01-24T04:37:05.015Z,0.85
2024-01-24T04:39:31.655Z,0.40
2024-01-24T04:42:05.534Z,0.40
2024-01-24T04:44:38.318Z,0.93
2024-01-24T04:47:04.765Z,0.50
2024-01-24T04:49:40.257Z,0.82
2024-01-24T04:52:11.458Z,1.52
2024-01-24T04:54:37.849Z,0.40
2024-01-24T04:57:05.062Z,0.85
2024-01-24T04:59:34.675Z,0.82
2024-01-24T05:04:29.158Z,1.00
2024-01-24T05:06:55.458Z,1.05
2024-01-24T05:09:21.823Z,2.03
2024-01-24T05:11:48.122Z,0.75
2024-01-24T05:14:14.507Z,0.90
2024-01-24T05:16:41.962Z,0.57
2024-01-24T05:19:08.301Z,0.55
2024-01-24T05:21:41.942Z,0.60
2024-01-24T05:24:10.011Z,0.93
2024-01-24T05:26:37.353Z,0.63
2024-01-24T05:29:05.483Z,2.50
2024-01-24T05:31:32.046Z,0.60
2024-01-24T05:33:58.497Z,0.65
2024-01-24T05:36:24.836Z,0.85
2024-01-24T05:38:51.167Z,1.08
2024-01-24T05:41:17.435Z,0.77
2024-01-24T05:43:43.820Z,1.45
2024-01-24T05:46:10.164Z,5.15
2024-01-24T05:48:36.595Z,1.80
2024-01-24T05:51:03.075Z,2.67
2024-01-24T05:53:29.458Z,3.92
2024-01-24T05:55:55.872Z,3.22
2024-01-24T05:58:22.232Z,4.80
2024-01-24T06:00:48.621Z,5.97
2024-01-24T06:03:15.021Z,5.28
2024-01-24T06:05:41.357Z,6.63
2024-01-24T06:08:07.763Z,5.72
2024-01-24T06:10:34.437Z,8.10
2024-01-24T06:13:00.701Z,4.55
2024-01-24T06:15:27.078Z,6.53
2024-01-24T06:17:53.511Z,3.60
2024-01-24T06:20:20.221Z,5.75
2024-01-24T06:22:47.507Z,6.43
2024-01-24T06:25:14.993Z,4.47
2024-01-24T06:27:43.101Z,7.78
2024-01-24T06:30:19.853Z,12.27
2024-01-24T06:32:49.940Z,9.25
2024-01-24T06:35:17.085Z,5.32
2024-01-24T06:37:43.435Z,9.52
2024-01-24T06:40:11.112Z,9.35
2024-01-24T06:42:38.426Z,14.05
2024-01-24T06:45:04.917Z,16.73
2024-01-24T06:47:31.235Z,12.65
2024-01-24T06:49:57.592Z,14.15
2024-01-24T06:52:23.861Z,15.80
2024-01-24T06:54:50.290Z,18.48
2024-01-24T06:57:16.725Z,13.93
2024-01-24T06:59:43.151Z,16.48
2024-01-24T07:02:09.647Z,26.20
2024-01-24T07:04:36.154Z,23.67
2024-01-24T07:07:02.689Z,15.57
2024-01-24T07:09:29.265Z,13.55
2024-01-24T07:11:55.561Z,17.65
2024-01-24T07:14:21.862Z,17.00
2024-01-24T07:16:48.374Z,18.55
2024-01-24T07:19:14.967Z,15.85
2024-01-24T07:21:41.425Z,16.10
2024-01-24T07:24:08.209Z,16.80
2024-01-24T07:26:35.237Z,22.35
2024-01-24T07:29:01.566Z,17.25
2024-01-24T07:31:27.941Z,18.25
2024-01-24T07:33:54.907Z,28.42
2024-01-24T07:36:24.205Z,20.20
2024-01-24T07:38:50.595Z,17.75
2024-01-24T07:41:16.908Z,16.80
2024-01-24T07:43:43.264Z,22.05
2024-01-24T07:46:11.223Z,22.08
2024-01-24T07:48:38.021Z,17.42
2024-01-24T07:51:05.567Z,17.17
2024-01-24T07:53:32.139Z,24.70
2024-01-24T07:56:07.301Z,18.98
2024-01-24T07:58:42.665Z,21.05
2024-01-24T08:01:09.522Z,24.55
2024-01-24T08:03:36.014Z,17.63
2024-01-24T08:06:03.688Z,27.83
2024-01-24T08:08:30.680Z,22.30
2024-01-24T08:10:56.960Z,19.65
2024-01-24T08:13:23.284Z,21.25
2024-01-24T08:15:49.727Z,21.10
2024-01-24T08:18:16.383Z,17.20
2024-01-24T08:20:42.707Z,22.35
2024-01-24T08:23:09.489Z,16.48
2024-01-24T08:25:35.807Z,19.98
2024-01-24T08:28:02.221Z,21.80
2024-01-24T08:30:28.617Z,18.48
2024-01-24T08:32:54.990Z,20.70
2024-01-24T08:35:21.666Z,23.02
2024-01-24T08:37:47.993Z,30.90
2024-01-24T08:40:14.528Z,31.33
2024-01-24T08:42:43.093Z,21.33
2024-01-24T08:45:10.480Z,25.20
2024-01-24T08:47:37.757Z,20.77
2024-01-24T08:50:05.324Z,22.58
2024-01-24T08:52:33.020Z,29.90
2024-01-24T08:54:59.651Z,25.05
2024-01-24T08:57:27.884Z,32.88
2024-01-24T08:59:54.764Z,34.00
2024-01-24T09:02:22.014Z,24.15
2024-01-24T09:04:49.679Z,24.98
2024-01-24T09:07:17.592Z,30.20
2024-01-24T09:09:44.184Z,30.73
2024-01-24T09:12:10.809Z,30.15
2024-01-24T09:14:37.214Z,24.73
2024-01-24T09:17:04.305Z,22.60
2024-01-24T09:19:30.994Z,26.15
2024-01-24T09:21:57.480Z,27.55
2024-01-24T09:24:23.863Z,22.83
2024-01-24T09:26:50.403Z,25.05
2024-01-24T09:29:16.865Z,25.98
2024-01-24T09:31:46.405Z,24.40
2024-01-24T09:34:13.460Z,28.75
2024-01-24T09:36:39.950Z,30.42
2024-01-24T09:39:06.290Z,30.48
2024-01-24T09:41:35.372Z,25.48
2024-01-24T09:44:04.829Z,30.42
2024-01-24T09:46:31.787Z,24.95
2024-01-24T09:48:58.143Z,29.27
2024-01-24T09:51:24.632Z,27.73
2024-01-24T09:53:52.035Z,31.15
2024-01-24T09:56:19.630Z,33.55
2024-01-24T09:58:46.102Z,31.88
2024-01-24T10:01:15.467Z,29.88
2024-01-24T10:03:45.115Z,27.17
2024-01-24T10:06:13.945Z,26.13
2024-01-24T10:08:40.296Z,21.55
2024-01-24T10:11:07.054Z,28.38
2024-01-24T10:13:33.486Z,28.02
2024-01-24T10:16:01.061Z,27.67
2024-01-24T10:18:27.780Z,35.15
2024-01-24T10:20:55.089Z,28.10
2024-01-24T10:23:22.247Z,25.98
2024-01-24T10:25:49.671Z,29.30
2024-01-24T10:28:17.982Z,22.58
2024-01-24T10:30:44.519Z,29.17
2024-01-24T10:33:11.824Z,37.53
2024-01-24T10:35:38.241Z,24.35
2024-01-24T10:38:05.128Z,31.45
2024-01-24T10:40:31.928Z,27.95
2024-01-24T10:43:06.504Z,29.20
2024-01-24T10:45:33.979Z,26.02
2024-01-24T10:48:00.972Z,29.95
2024-01-24T10:50:27.486Z,25.45
2024-01-24T10:52:55.103Z,24.30
2024-01-24T10:55:22.068Z,34.03
2024-01-24T10:57:49.763Z,28.60
2024-01-24T11:00:18.973Z,30.48
2024-01-24T11:02:45.467Z,29.35
2024-01-24T11:05:17.630Z,34.00
2024-01-24T11:07:59.052Z,29.02
2024-01-24T11:10:28.658Z,30.90
2024-01-24T11:12:55.086Z,31.58
2024-01-24T11:15:23.299Z,35.90
2024-01-24T11:18:08.539Z,24.75
2024-01-24T11:20:45.509Z,29.67
2024-01-24T11:23:30.663Z,25.67
2024-01-24T11:25:57.055Z,29.70
2024-01-24T11:28:26.472Z,30.85
2024-01-24T11:30:52.965Z,27.90
2024-01-24T11:33:20.353Z,28.40
2024-01-24T11:35:47.860Z,33.67
2024-01-24T11:38:32.920Z,34.42
2024-01-24T11:41:24.074Z,27.67
2024-01-24T11:43:50.761Z,23.88
2024-01-24T11:46:19.274Z,24.10
2024-01-24T11:48:45.747Z,34.22
2024-01-24T11:51:12.999Z,28.67
2024-01-24T11:53:39.499Z,25.35
2024-01-24T11:56:06.836Z,26.48
2024-01-24T11:58:33.391Z,28.52
2024-01-24T12:00:59.733Z,21.70
2024-01-24T12:03:26.242Z,31.88
2024-01-24T12:05:53.028Z,22.67
2024-01-24T12:08:19.907Z,23.83
2024-01-24T12:10:46.323Z,25.75
2024-01-24T12:13:13.793Z,25.77
2024-01-24T12:15:40.550Z,23.65
2024-01-24T12:18:10.849Z,24.17
2024-01-24T12:20:37.733Z,32.50
2024-01-24T12:23:04.739Z,22.45
2024-01-24T12:25:33.935Z,21.65
2024-01-24T12:28:02.507Z,29.90
2024-01-24T12:30:35.907Z,24.60
2024-01-24T12:33:03.473Z,30.88
2024-01-24T12:35:30.240Z,20.23
2024-01-24T12:38:00.935Z,25.80
2024-01-24T12:40:31.472Z,24.88
2024-01-24T12:42:58.403Z,22.27
2024-01-24T12:45:25.944Z,24.02
2024-01-24T12:47:53.276Z,22.95
2024-01-24T12:50:19.918Z,26.30
2024-01-24T12:52:46.381Z,25.20
2024-01-24T12:55:13.057Z,26.65
2024-01-24T12:57:40.655Z,22.83
2024-01-24T13:00:11.045Z,23.88
2024-01-24T13:02:39.046Z,25.80
2024-01-24T13:05:06.259Z,22.23
2024-01-24T13:07:33.249Z,24.85
2024-01-24T13:10:03.359Z,26.75
2024-01-24T13:12:33.339Z,27.15
2024-01-24T13:14:59.955Z,25.65
2024-01-24T13:17:26.423Z,31.02
2024-01-24T13:19:52.878Z,25.50
2024-01-24T13:22:19.283Z,25.98
2024-01-24T13:24:46.344Z,27.88
2024-01-24T13:27:12.779Z,28.60
2024-01-24T13:29:39.208Z,28.45
2024-01-24T13:32:05.851Z,28.52
2024-01-24T13:34:32.412Z,27.10
2024-01-24T13:36:58.975Z,30.95
2024-01-24T13:39:26.210Z,27.20
2024-01-24T13:41:52.613Z,26.35
2024-01-24T13:44:19.162Z,27.73
2024-01-24T13:46:45.546Z,27.40
2024-01-24T13:49:12.035Z,31.60
2024-01-24T13:51:43.103Z,23.42
2024-01-24T13:54:11.227Z,25.98
2024-01-24T13:56:37.721Z,22.30
2024-01-24T13:59:04.072Z,27.52
2024-01-24T14:01:31.607Z,26.30
2024-01-24T14:03:59.287Z,29.83
2024-01-24T14:06:26.054Z,22.58
2024-01-24T14:08:52.568Z,28.98
2024-01-24T14:11:18.910Z,24.48
2024-01-24T14:13:49.976Z,31.67
2024-01-24T14:16:18.278Z,26.98
2024-01-24T14:18:45.155Z,26.13
2024-01-24T14:21:12.473Z,22.90
2024-01-24T14:23:40.819Z,22.58
2024-01-24T14:26:09.639Z,23.05
2024-01-24T14:28:37.410Z,26.98
2024-01-24T14:31:03.870Z,30.88
2024-01-24T14:33:34.617Z,24.35
2024-01-24T14:38:27.967Z,23.52
2024-01-24T14:40:54.996Z,25.02
2024-01-24T14:43:21.354Z,25.42
2024-01-24T14:45:47.895Z,28.58
2024-01-24T14:48:14.525Z,27.42
2024-01-24T14:50:40.892Z,23.38
2024-01-24T14:53:07.360Z,28.73
2024-01-24T14:55:33.620Z,29.55
2024-01-24T14:58:01.130Z,25.27
2024-01-24T15:00:30.418Z,34.80
2024-01-24T15:02:57.317Z,26.92
2024-01-24T15:05:25.348Z,25.17
2024-01-24T15:07:51.904Z,25.02
2024-01-24T15:10:18.351Z,29.13
2024-01-24T15:12:45.374Z,27.95
2024-01-24T15:15:11.782Z,24.23
2024-01-24T15:17:38.314Z,28.58
2024-01-24T15:20:05.563Z,27.52
2024-01-24T15:22:33.117Z,27.08
2024-01-24T15:25:03.234Z,26.48
2024-01-24T15:27:29.742Z,27.88
2024-01-24T15:29:56.329Z,21.45
2024-01-24T15:32:22.895Z,26.58
2024-01-24T15:34:49.423Z,23.52
2024-01-24T15:37:17.063Z,22.92
2024-01-24T15:39:43.971Z,26.10
2024-01-24T15:42:12.304Z,27.92
2024-01-24T15:44:38.692Z,22.73
2024-01-24T15:47:05.309Z,27.30
2024-01-24T15:49:31.819Z,26.65
2024-01-24T15:51:58.293Z,20.60
2024-01-24T15:54:24.809Z,27.38
2024-01-24T15:56:51.140Z,24.63
2024-01-24T15:59:17.524Z,24.40
2024-01-24T16:01:48.625Z,22.38
2024-01-24T16:04:17.036Z,25.02
2024-01-24T16:06:43.652Z,24.23
2024-01-24T16:09:10.227Z,25.40
2024-01-24T16:11:37.227Z,24.23
2024-01-24T16:14:03.769Z,28.70
2024-01-24T16:16:30.352Z,24.42
2024-01-24T16:18:56.890Z,24.15
2024-01-24T16:21:23.976Z,21.98
2024-01-24T16:23:50.379Z,24.25
2024-01-24T16:26:17.040Z,26.40
2024-01-24T16:28:44.452Z,24.83
2024-01-24T16:31:11.041Z,25.42
2024-01-24T16:33:37.480Z,28.67
2024-01-24T16:36:05.482Z,24.35
2024-01-24T16:38:32.874Z,24.35
2024-01-24T16:40:59.707Z,25.08
2024-01-24T16:43:31.512Z,24.60
2024-01-24T16:45:58.719Z,25.70
2024-01-24T16:48:25.298Z,24.00
2024-01-24T16:50:51.961Z,24.55
2024-01-24T16:53:19.768Z,28.25
2024-01-24T16:55:46.158Z,20.23
2024-01-24T16:58:14.287Z,25.00
2024-01-24T17:00:40.613Z,20.75
2024-01-24T17:03:06.957Z,25.27
2024-01-24T17:05:33.596Z,21.08
2024-01-24T17:08:00.027Z,32.63
2024-01-24T17:10:26.339Z,23.20
2024-01-24T17:12:52.711Z,29.10
2024-01-24T17:15:19.132Z,23.83
2024-01-24T17:17:45.730Z,30.45
2024-01-24T17:20:12.145Z,29.48
2024-01-24T17:22:38.440Z,35.08
2024-01-24T17:25:06.924Z,27.40
2024-01-24T17:27:33.288Z,29.98
2024-01-24T17:29:59.753Z,40.45
2024-01-24T17:32:26.130Z,29.30
2024-01-24T17:34:53.355Z,30.83
2024-01-24T17:37:19.909Z,30.33
2024-01-24T17:39:51.978Z,36.97
2024-01-24T17:42:18.326Z,34.90
2024-01-24T17:44:44.782Z,30.33
2024-01-24T17:47:11.602Z,32.70
2024-01-24T17:49:38.017Z,36.47
2024-01-24T17:52:04.598Z,34.63
2024-01-24T17:54:30.952Z,33.20
2024-01-24T17:56:57.501Z,33.33
2024-01-24T17:59:23.843Z,36.22
2024-01-24T18:01:51.292Z,32.58
2024-01-24T18:04:17.997Z,29.92
2024-01-24T18:06:44.598Z,27.58
2024-01-24T18:09:12.353Z,35.20
2024-01-24T18:11:39.889Z,31.02
2024-01-24T18:14:06.280Z,34.75
2024-01-24T18:16:32.579Z,32.58
2024-01-24T18:18:58.993Z,36.05
2024-01-24T18:21:26.938Z,34.55
2024-01-24T18:23:54.028Z,30.10
2024-01-24T18:26:20.546Z,32.30
2024-01-24T18:28:48.554Z,36.97
2024-01-24T18:31:15.862Z,30.35
2024-01-24T18:33:42.829Z,39.05
2024-01-24T18:36:11.049Z,35.17
2024-01-24T18:38:38.346Z,35.10
2024-01-24T18:41:04.917Z,36.75
2024-01-24T18:43:31.228Z,38.42
2024-01-24T18:46:00.058Z,33.08
2024-01-24T18:48:26.535Z,32.90
2024-01-24T18:50:52.887Z,36.03
2024-01-24T18:53:19.212Z,37.42
2024-01-24T18:55:46.076Z,37.65
2024-01-24T18:58:13.086Z,32.42
2024-01-24T19:00:41.222Z,35.15
2024-01-24T19:03:08.216Z,28.23
2024-01-24T19:05:38.666Z,37.47
2024-01-24T19:08:08.728Z,38.20
2024-01-24T19:10:36.478Z,43.05
2024-01-24T19:13:03.385Z,34.72
2024-01-24T19:15:30.369Z,37.17
2024-01-24T19:17:57.215Z,33.65
2024-01-24T19:20:24.445Z,27.17
2024-01-24T19:22:57.562Z,41.78
2024-01-24T19:25:23.986Z,32.90
2024-01-24T19:27:50.284Z,35.05
2024-01-24T19:30:17.183Z,30.25
2024-01-24T19:32:43.890Z,32.88
2024-01-24T19:35:10.611Z,33.30
2024-01-24T19:37:36.952Z,39.05
2024-01-24T19:40:05.928Z,34.97
2024-01-24T19:42:32.768Z,33.95
2024-01-24T19:44:59.363Z,41.90
2024-01-24T19:47:32.144Z,39.55
2024-01-24T19:49:58.594Z,40.38
2024-01-24T19:52:24.960Z,34.42
2024-01-24T19:54:51.997Z,39.55
2024-01-24T19:57:18.587Z,36.45
2024-01-24T19:59:46.764Z,35.13
2024-01-24T20:02:13.261Z,40.65
2024-01-24T20:04:39.671Z,33.85
2024-01-24T20:07:12.966Z,38.88
2024-01-24T20:10:05.354Z,35.03
2024-01-24T20:12:32.025Z,37.63
2024-01-24T20:14:58.612Z,40.75
2024-01-24T20:17:25.324Z,40.38
2024-01-24T20:19:52.556Z,38.90
2024-01-24T20:22:19.049Z,38.83
2024-01-24T20:24:46.764Z,34.33
2024-01-24T20:27:13.458Z,42.40
2024-01-24T20:29:41.562Z,40.78
2024-01-24T20:32:08.095Z,47.72
2024-01-24T20:34:34.624Z,38.47
2024-01-24T20:37:02.811Z,38.97
2024-01-24T20:39:29.709Z,37.53
2024-01-24T20:42:11.195Z,35.72
2024-01-24T20:44:40.494Z,36.17
2024-01-24T20:47:17.025Z,36.58
2024-01-24T20:49:57.367Z,40.40
2024-01-24T20:52:39.207Z,48.67
2024-01-24T20:58:38.090Z,38.75
2024-01-24T21:01:20.303Z,39.28
2024-01-24T21:04:05.436Z,38.78
2024-01-24T21:06:32.450Z,42.50
2024-01-24T21:08:59.363Z,32.97
2024-01-24T21:11:25.853Z,36.63
2024-01-24T21:13:52.118Z,31.58
2024-01-24T21:16:18.662Z,37.78
2024-01-24T21:18:45.287Z,38.22
2024-01-24T21:21:12.010Z,37.22
2024-01-24T21:23:38.494Z,34.38
2024-01-24T21:26:04.798Z,38.90
2024-01-24T21:28:31.123Z,38.40
2024-01-24T21:30:57.405Z,38.65
2024-01-24T21:33:23.736Z,33.30
2024-01-24T21:35:50.128Z,31.20
2024-01-24T21:38:18.266Z,34.05
2024-01-24T21:40:44.607Z,30.80
2024-01-24T21:43:10.976Z,37.08
2024-01-24T21:45:37.368Z,38.67
2024-01-24T21:48:03.836Z,35.78
2024-01-24T21:50:30.143Z,32.20
2024-01-24T21:52:56.634Z,40.03
2024-01-24T21:55:23.005Z,37.30
2024-01-24T21:57:52.323Z,29.85
2024-01-24T22:00:19.150Z,44.47
2024-01-24T22:02:45.481Z,32.95
2024-01-24T22:05:11.852Z,40.95
2024-01-24T22:07:38.344Z,31.25
2024-01-24T22:10:05.007Z,33.28
2024-01-24T22:12:31.308Z,37.50
2024-01-24T22:14:57.556Z,36.38
2024-01-24T22:17:23.836Z,35.80
2024-01-24T22:19:50.153Z,34.92
2024-01-24T22:22:16.953Z,30.50
2024-01-24T22:24:43.354Z,34.03
2024-01-24T22:27:09.826Z,35.45
2024-01-24T22:29:36.106Z,39.67
2024-01-24T22:32:03.950Z,33.05
2024-01-24T22:34:30.668Z,37.50
2024-01-24T22:36:57.137Z,30.27
2024-01-24T22:39:23.488Z,29.92
2024-01-24T22:41:49.770Z,37.05
2024-01-24T22:44:17.607Z,44.67
2024-01-24T22:46:43.888Z,35.85
2024-01-24T22:49:11.404Z,36.63
2024-01-24T22:51:39.204Z,39.85
2024-01-24T22:54:05.962Z,45.95
2024-01-24T22:56:32.380Z,44.13
2024-01-24T22:58:58.737Z,41.10
2024-01-24T23:01:25.284Z,43.72
2024-01-24T23:03:51.732Z,47.13
2024-01-24T23:06:18.597Z,34.08
2024-01-24T23:08:45.006Z,34.53
2024-01-24T23:11:12.832Z,49.47
2024-01-24T23:13:39.265Z,37.88
2024-01-24T23:16:05.825Z,46.67
2024-01-24T23:18:32.119Z,39.53
2024-01-24T23:21:00.218Z,41.72
2024-01-24T23:23:26.616Z,41.08
2024-01-24T23:25:53.634Z,39.72
2024-01-24T23:28:20.083Z,38.92
2024-01-24T23:30:46.556Z,42.08
2024-01-24T23:33:13.096Z,41.00
2024-01-24T23:35:39.444Z,40.47
2024-01-24T23:38:05.961Z,36.63
2024-01-24T23:40:32.277Z,43.15
2024-01-24T23:42:58.908Z,34.42
2024-01-24T23:45:25.602Z,36.33
2024-01-24T23:47:52.050Z,32.38
2024-01-24T23:50:19.030Z,38.90
2024-01-24T23:52:45.553Z,40.53
2024-01-24T23:55:11.993Z,40.38
2024-01-24T23:57:38.375Z,39.22
